| time (UTC) | temp C | wind direction | speed KPH | gust KPH | rain 1hr cm | rain 24hr cm | rain mn cm | humidity % | barometer mb |
| 20260906210017 | 33 | 113 | 16.1 | 25.7 | 0.00 | 0.00 | 0.00 | 39 | 1015.6 |
| 20260906205019 | 32 | 135 | 14.5 | 22.5 | 0.00 | 0.00 | 0.00 | 39 | 1015.7 |
| 20260906204017 | 32 | 113 | 17.7 | 25.7 | 0.00 | 0.00 | 0.00 | 41 | 1015.8 |
| 20260906203019 | 32 | 113 | 19.3 | 29.0 | 0.00 | 0.00 | 0.00 | 41 | 1016.2 |
| 20260906202018 | 32 | 90 | 17.7 | 25.7 | 0.00 | 0.00 | 0.00 | 42 | 1016.1 |
| 20260906201017 | 32 | 113 | 19.3 | 29.0 | 0.00 | 0.00 | 0.00 | 41 | 1016.4 |
| 20260906200017 | 32 | 113 | 16.1 | 29.0 | 0.00 | 0.00 | 0.00 | 40 | 1016.5 |
| 20260906195019 | 32 | 135 | 11.3 | 19.3 | 0.00 | 0.00 | 0.00 | 39 | 1016.8 |
| 20260906194017 | 32 | 113 | 8.0 | 16.1 | 0.00 | 0.00 | 0.00 | 39 | 1016.6 |
| 20260906193017 | 32 | 90 | 6.4 | 17.7 | 0.00 | 0.00 | 0.00 | 40 | 1017.1 |
| 20260906192019 | 32 | 135 | 9.7 | 17.7 | 0.00 | 0.00 | 0.00 | 40 | 1017.1 |
| 20260906191019 | 32 | 135 | 11.3 | 17.7 | 0.00 | 0.00 | 0.00 | 40 | 1017.2 |
| 20260906190017 | 31 | 135 | 11.3 | 19.3 | 0.00 | 0.00 | 0.00 | 40 | 1017.0 |
| 20260906185017 | 31 | 135 | 8.0 | 17.7 | 0.00 | 0.00 | 0.00 | 41 | 1017.2 |
| 20260906184019 | 31 | 113 | 11.3 | 25.7 | 0.00 | 0.00 | 0.00 | 42 | 1017.4 |
| 20260906183019 | 31 | 135 | 8.0 | 16.1 | 0.00 | 0.00 | 0.00 | 43 | 1017.7 |
| 20260906182017 | 30 | 135 | 8.0 | 17.7 | 0.00 | 0.00 | 0.00 | 43 | 1017.6 |
| 20260906181017 | 30 | 113 | 8.0 | 14.5 | 0.00 | 0.00 | 0.00 | 44 | 1017.8 |
| 20260906180019 | 30 | 135 | 8.0 | 14.5 | 0.00 | 0.00 | 0.00 | 47 | 1018.0 |
| 20260906175017 | 29 | 113 | 8.0 | 16.1 | 0.00 | 0.00 | 0.00 | 47 | 1017.8 |
| 20260906174017 | 28 | 203 | 6.4 | 14.5 | 0.00 | 0.00 | 0.00 | 48 | 1018.1 |
| 20260906173021 | 28 | 135 | 4.8 | 11.3 | 0.00 | 0.00 | 0.00 | 49 | 1018.0 |
| 20260906172019 | 28 | 68 | 4.8 | 16.1 | 0.00 | 0.00 | 0.00 | 49 | 1018.4 |
| 20260906171019 | 27 | 158 | 4.8 | 11.3 | 0.00 | 0.00 | 0.00 | 50 | 1018.3 |
| 20260906170019 | 27 | 90 | 4.8 | 12.9 | 0.00 | 0.00 | 0.00 | 51 | 1018.6 |
| 20260906165019 | 27 | 180 | 4.8 | 9.7 | 0.00 | 0.00 | 0.00 | 52 | 1018.6 |
| 20260906164020 | 26 | 113 | 3.2 | 14.5 | 0.00 | 0.00 | 0.00 | 53 | 1018.6 |
| 20260906163019 | 26 | 203 | 3.2 | 9.7 | 0.00 | 0.00 | 0.00 | 54 | 1018.7 |
| 20260906162019 | 25 | 180 | 1.6 | 8.0 | 0.00 | 0.00 | 0.00 | 55 | 1018.8 |
| 20260906161019 | 25 | 135 | 3.2 | 8.0 | 0.00 | 0.00 | 0.00 | 57 | 1018.6 |
| 20260906160019 | 25 | 113 | 3.2 | 8.0 | 0.00 | 0.00 | 0.00 | 57 | 1018.5 |
| 20260906155019 | 24 | 180 | 3.2 | 8.0 | 0.00 | 0.00 | 0.00 | 59 | 1018.6 |
| 20260906154017 | 24 | 90 | 4.8 | 6.4 | 0.00 | 0.00 | 0.00 | 60 | 1018.4 |
| 20260906153018 | 23 | 135 | 3.2 | 9.7 | 0.00 | 0.00 | 0.00 | 60 | 1018.5 |
| 20260906152019 | 23 | 135 | 4.8 | 12.9 | 0.00 | 0.00 | 0.00 | 62 | 1018.3 |
| 20260906151019 | 22 | 113 | 6.4 | 11.3 | 0.00 | 0.00 | 0.00 | 64 | 1018.4 |
| 20260906150019 | 22 | 135 | 8.0 | 14.5 | 0.00 | 0.00 | 0.00 | 64 | 1018.4 |
| 20260906145019 | 22 | 113 | 6.4 | 12.9 | 0.00 | 0.00 | 0.00 | 67 | 1018.4 |
| 20260906144019 | 21 | 135 | 8.0 | 14.5 | 0.00 | 0.00 | 0.00 | 68 | 1018.2 |
| 20260906143019 | 21 | 113 | 6.4 | 11.3 | 0.00 | 0.00 | 0.00 | 72 | 1018.2 |
| 20260906142018 | 20 | 113 | 3.2 | 6.4 | 0.00 | 0.00 | 0.00 | 77 | 1018.3 |
| 20260906141018 | 18 | 90 | 3.2 | 6.4 | 0.00 | 0.00 | 0.00 | 82 | 1018.2 |
| 20260906140019 | 17 | 23 | 3.2 | 4.8 | 0.00 | 0.00 | 0.00 | 85 | 1018.3 |
| 20260906135019 | 16 | 0.0 | 0.0 | 0.00 | 0.00 | 0.00 | 89 | 1018.2 | |
| 20260906134018 | 16 | 0.0 | 0.0 | 0.00 | 0.00 | 0.00 | 88 | 1018.5 | |
| 20260906133019 | 16 | 0.0 | 0.0 | 0.00 | 0.00 | 0.00 | 90 | 1018.8 | |
| 20260906132019 | 15 | 0.0 | 0.0 | 0.00 | 0.00 | 0.00 | 92 | 1018.4 | |
| 20260906131019 | 14 | 0.0 | 0.0 | 0.00 | 0.00 | 0.00 | 93 | 1018.5 | |
| 20260906130019 | 13 | 0.0 | 0.0 | 0.00 | 0.00 | 0.00 | 92 | 1018.2 | |
| 20260906125019 | 13 | 0.0 | 0.0 | 0.00 | 0.00 | 0.00 | 92 | 1018.3 | |
| 20260906124019 | 13 | 0.0 | 0.0 | 0.00 | 0.00 | 0.00 | 92 | 1018.0 | |
| 20260906123019 | 13 | 0.0 | 0.0 | 0.00 | 0.00 | 0.00 | 92 | 1017.9 | |
| 20260906122019 | 13 | 0.0 | 0.0 | 0.00 | 0.00 | 0.00 | 91 | 1018.2 | |
| 20260906121018 | 13 | 0.0 | 0.0 | 0.00 | 0.00 | 0.00 | 91 | 1018.2 | |
| 20260906120018 | 13 | 0.0 | 0.0 | 0.00 | 0.00 | 0.00 | 91 | 1018.2 | |
| 20260906115019 | 13 | 0.0 | 0.0 | 0.00 | 0.00 | 0.00 | 91 | 1018.5 | |
| 20260906114018 | 13 | 0.0 | 0.0 | 0.00 | 0.00 | 0.00 | 92 | 1018.6 | |
| 20260906113019 | 13 | 0.0 | 0.0 | 0.00 | 0.00 | 0.00 | 92 | 1018.8 | |
| 20260906112018 | 13 | 0.0 | 1.6 | 0.00 | 0.00 | 0.00 | 91 | 1019.2 | |
| 20260906111018 | 13 | 0.0 | 3.2 | 0.00 | 0.00 | 0.00 | 92 | 1019.6 | |
| 20260906110019 | 13 | 0.0 | 4.8 | 0.00 | 0.00 | 0.00 | 92 | 1019.6 | |
| 20260906105018 | 13 | 0.0 | 3.2 | 0.00 | 0.00 | 0.00 | 92 | 1020.0 | |
| 20260906104018 | 13 | 248 | 1.6 | 4.8 | 0.00 | 0.00 | 0.00 | 91 | 1020.0 |
| 20260906103018 | 13 | 0.0 | 0.0 | 0.00 | 0.00 | 0.00 | 91 | 1019.8 | |
| 20260906102018 | 13 | 0.0 | 3.2 | 0.00 | 0.00 | 0.00 | 91 | 1019.7 | |
| 20260906101018 | 13 | 248 | 1.6 | 4.8 | 0.00 | 0.00 | 0.00 | 89 | 1019.8 |
| 20260906100018 | 13 | 0.0 | 0.0 | 0.00 | 0.00 | 0.00 | 90 | 1020.0 | |
| 20260906095018 | 13 | 0.0 | 3.2 | 0.00 | 0.00 | 0.00 | 90 | 1019.8 | |
| 20260906094018 | 14 | 248 | 1.6 | 4.8 | 0.00 | 0.00 | 0.00 | 89 | 1019.7 |
| 20260906093018 | 14 | 0.0 | 0.0 | 0.00 | 0.00 | 0.00 | 89 | 1019.7 | |
| 20260906092019 | 14 | 0.0 | 0.0 | 0.00 | 0.00 | 0.00 | 89 | 1019.5 | |
| 20260906091018 | 15 | 0.0 | 0.0 | 0.00 | 0.00 | 0.00 | 89 | 1019.5 | |
| 20260906090018 | 15 | 0.0 | 0.0 | 0.00 | 0.00 | 0.00 | 88 | 1019.3 | |
| 20260906085018 | 15 | 0.0 | 4.8 | 0.00 | 0.00 | 0.00 | 88 | 1019.3 | |
| 20260906084018 | 15 | 0.0 | 4.8 | 0.00 | 0.00 | 0.00 | 88 | 1019.1 | |
| 20260906083018 | 16 | 0.0 | 0.0 | 0.00 | 0.00 | 0.00 | 88 | 1019.0 | |
| 20260906082020 | 16 | 90 | 1.6 | 4.8 | 0.00 | 0.00 | 0.00 | 87 | 1018.7 |
| 20260906081018 | 16 | 45 | 1.6 | 4.8 | 0.00 | 0.00 | 0.00 | 86 | 1019.2 |
| 20260906080018 | 16 | 45 | 3.2 | 4.8 | 0.00 | 0.00 | 0.00 | 85 | 1019.8 |
| 20260906075018 | 17 | 0.0 | 0.0 | 0.00 | 0.00 | 0.00 | 85 | 1019.9 | |
| 20260906074018 | 17 | 0.0 | 3.2 | 0.00 | 0.00 | 0.00 | 84 | 1019.9 | |
| 20260906073018 | 17 | 113 | 1.6 | 4.8 | 0.00 | 0.00 | 0.00 | 84 | 1020.2 |
| 20260906072018 | 17 | 113 | 6.4 | 11.3 | 0.00 | 0.00 | 0.00 | 84 | 1020.0 |
| 20260906071018 | 18 | 113 | 4.8 | 11.3 | 0.00 | 0.00 | 0.00 | 84 | 1020.2 |
| 20260906070018 | 18 | 113 | 9.7 | 14.5 | 0.00 | 0.00 | 0.00 | 84 | 1019.9 |
| 20260906065018 | 17 | 113 | 4.8 | 11.3 | 0.00 | 0.00 | 0.00 | 85 | 1019.9 |
| 20260906064018 | 17 | 113 | 3.2 | 4.8 | 0.00 | 0.00 | 0.00 | 85 | 1020.2 |
| 20260906063018 | 17 | 113 | 3.2 | 6.4 | 0.00 | 0.00 | 0.00 | 86 | 1019.9 |
| 20260906062018 | 17 | 90 | 4.8 | 9.7 | 0.00 | 0.00 | 0.00 | 85 | 1019.7 |
| 20260906061018 | 17 | 113 | 6.4 | 9.7 | 0.00 | 0.00 | 0.00 | 85 | 1019.4 |
| 20260906060018 | 17 | 113 | 4.8 | 9.7 | 0.00 | 0.00 | 0.00 | 84 | 1019.0 |
| 20260906055019 | 18 | 113 | 3.2 | 6.4 | 0.00 | 0.00 | 0.00 | 84 | 1019.1 |
| 20260906054019 | 18 | 90 | 8.0 | 12.9 | 0.00 | 0.00 | 0.00 | 86 | 1018.6 |
| 20260906053018 | 17 | 113 | 6.4 | 9.7 | 0.00 | 0.00 | 0.00 | 86 | 1018.0 |
| 20260906052019 | 18 | 90 | 4.8 | 8.0 | 0.00 | 0.00 | 0.00 | 86 | 1017.7 |
| 20260906051018 | 18 | 90 | 4.8 | 8.0 | 0.00 | 0.00 | 0.00 | 84 | 1017.5 |
| 20260906050019 | 18 | 68 | 3.2 | 6.4 | 0.00 | 0.00 | 0.00 | 83 | 1017.7 |
| 20260906045019 | 19 | 90 | 4.8 | 9.7 | 0.00 | 0.00 | 0.00 | 82 | 1017.8 |
| 20260906044019 | 19 | 23 | 4.8 | 6.4 | 0.00 | 0.00 | 0.00 | 81 | 1018.0 |
| 20260906043018 | 20 | 0.0 | 3.2 | 0.00 | 0.00 | 0.00 | 79 | 1017.6 | |
| 20260906042020 | 20 | 90 | 3.2 | 6.4 | 0.00 | 0.00 | 0.00 | 79 | 1017.8 |
| 20260906041020 | 20 | 135 | 9.7 | 16.1 | 0.00 | 0.00 | 0.00 | 80 | 1017.9 |
| 20260906040019 | 20 | 135 | 8.0 | 14.5 | 0.00 | 0.00 | 0.00 | 81 | 1017.7 |
| 20260906035026 | 20 | 135 | 14.5 | 24.1 | 0.00 | 0.00 | 0.00 | 81 | 1017.5 |
| 20260906034018 | 20 | 135 | 16.1 | 24.1 | 0.00 | 0.00 | 0.00 | 81 | 1017.4 |
| 20260906033018 | 19 | 135 | 19.3 | 29.0 | 0.00 | 0.00 | 0.00 | 81 | 1017.0 |
| 20260906032019 | 19 | 113 | 16.1 | 20.9 | 0.00 | 0.00 | 0.00 | 81 | 1016.9 |
| 20260906031023 | 20 | 113 | 12.9 | 17.7 | 0.00 | 0.00 | 0.00 | 80 | 1017.1 |
| 20260906030019 | 20 | 113 | 17.7 | 25.7 | 0.00 | 0.00 | 0.00 | 79 | 1017.1 |
| 20260906025018 | 20 | 113 | 17.7 | 22.5 | 0.00 | 0.00 | 0.00 | 77 | 1016.4 |
| 20260906024018 | 20 | 135 | 17.7 | 25.7 | 0.00 | 0.00 | 0.00 | 76 | 1015.9 |
| 20260906023018 | 20 | 135 | 22.5 | 32.2 | 0.00 | 0.00 | 0.00 | 74 | 1016.4 |
| 20260906022018 | 21 | 113 | 27.4 | 41.8 | 0.00 | 0.00 | 0.00 | 71 | 1016.6 |
| 20260906021018 | 21 | 113 | 25.7 | 37.0 | 0.00 | 0.00 | 0.00 | 67 | 1016.7 |
| 20260906020018 | 22 | 135 | 30.6 | 43.5 | 0.00 | 0.00 | 0.00 | 64 | 1016.2 |
| 20260906015018 | 22 | 135 | 25.7 | 38.6 | 0.00 | 0.00 | 0.00 | 63 | 1016.2 |
| 20260906014018 | 23 | 113 | 32.2 | 49.9 | 0.00 | 0.00 | 0.00 | 58 | 1015.9 |
| 20260906013018 | 25 | 113 | 25.7 | 35.4 | 0.00 | 0.00 | 0.00 | 57 | 1015.7 |
| 20260906012019 | 25 | 113 | 24.1 | 32.2 | 0.00 | 0.00 | 0.00 | 55 | 1015.1 |
| 20260906011018 | 25 | 113 | 22.5 | 32.2 | 0.00 | 0.00 | 0.00 | 55 | 1014.5 |
| 20260906010018 | 26 | 113 | 27.4 | 40.2 | 0.00 | 0.00 | 0.00 | 51 | 1014.6 |
| 20260906005020 | 26 | 113 | 24.1 | 33.8 | 0.00 | 0.00 | 0.00 | 48 | 1014.5 |
| 20260906004018 | 26 | 90 | 24.1 | 38.6 | 0.00 | 0.00 | 0.00 | 51 | 1014.6 |
| 20260906003020 | 26 | 113 | 22.5 | 35.4 | 0.00 | 0.00 | 0.00 | 56 | 1014.9 |
| 20260906002019 | 27 | 113 | 29.0 | 41.8 | 0.00 | 0.00 | 0.00 | 55 | 1015.0 |
| 20260906001018 | 27 | 90 | 22.5 | 33.8 | 0.00 | 0.00 | 0.00 | 51 | 1014.6 |
| 20260906000018 | 27 | 90 | 24.1 | 40.2 | 0.00 | 0.00 | 0.00 | 51 | 1014.3 |
| 20260905235018 | 28 | 68 | 20.9 | 32.2 | 0.00 | 0.00 | 0.00 | 48 | 1014.3 |
| 20260905234018 | 28 | 68 | 24.1 | 38.6 | 0.00 | 0.00 | 0.00 | 46 | 1014.1 |
| 20260905233018 | 29 | 68 | 22.5 | 37.0 | 0.00 | 0.00 | 0.00 | 43 | 1014.2 |
| 20260905232018 | 31 | 45 | 25.7 | 43.5 | 0.00 | 0.00 | 0.00 | 35 | 1014.8 |
| 20260905231018 | 34 | 45 | 11.3 | 24.1 | 0.00 | 0.00 | 0.00 | 25 | 1015.0 |
| 20260905230018 | 35 | 0 | 14.5 | 24.1 | 0.00 | 0.00 | 0.00 | 22 | 1015.0 |
| 20260905225018 | 36 | 270 | 4.8 | 11.3 | 0.00 | 0.00 | 0.00 | 23 | 1014.8 |
| 20260905224021 | 36 | 0.0 | 3.2 | 0.00 | 0.00 | 0.00 | 23 | 1015.0 | |
| 20260905223018 | 35 | 203 | 3.2 | 11.3 | 0.00 | 0.00 | 0.00 | 22 | 1014.8 |
| 20260905222019 | 35 | 315 | 6.4 | 12.9 | 0.00 | 0.00 | 0.00 | 23 | 1014.8 |
| 20260905221018 | 35 | 225 | 4.8 | 12.9 | 0.00 | 0.00 | 0.00 | 23 | 1015.0 |
| 20260905220018 | 36 | 248 | 8.0 | 17.7 | 0.00 | 0.00 | 0.00 | 21 | 1015.1 |
| 20260905215019 | 36 | 180 | 3.2 | 9.7 | 0.00 | 0.00 | 0.00 | 24 | 1015.4 |
| 20260905214018 | 36 | 180 | 8.0 | 19.3 | 0.00 | 0.00 | 0.00 | 23 | 1015.5 |
| 20260905213018 | 36 | 180 | 6.4 | 16.1 | 0.00 | 0.00 | 0.00 | 24 | 1015.8 |
| 20260905212019 | 35 | 180 | 6.4 | 14.5 | 0.00 | 0.00 | 0.00 | 23 | 1015.7 |
| 20260905211019 | 35 | 113 | 4.8 | 20.9 | 0.00 | 0.00 | 0.00 | 24 | 1015.7 |